»·PEaware :: N2442P KRNO-KBAM

N2442P :: KRNO-KBAM

FLIGHT INFORMATION

Flight Status: Arrived
Operator: Privately registered:
United States
More flights under this callsign
Pilot: Ken Q. (14290)
Aircraft: MOONEY M-20K/M ENCORE BRAVO
(M20T)
More flights by this aircraft type
Origin: KRNO Reno/Tahoe Intl
United States
Destination: KBAM Battle Mountain
United States
More flights between these airports :: More routes between these airports
Route: KRNO LLC ZUSRU WIKLO BAM KBAM
File this flight plan on PilotEdge
Remarks: X
Altitude:
(Current/Filed)
11,500ft
Speed:
(Current/Filed)
175kts
Departed: 09-Jul-20 07:44 AM
Arrived: 09-Jul-20 08:43 AM
Distance/Time
Traveled:
0nm/0:59
Distance/Time
To Go:
Arrived

Flight Plot

Page will automatically refresh every two minutes.

Flight plan parsing failed; only flown route is shown


Map Options




Map Legend


Flown Route
Filed Route
Departure Airport
Arrival Airport
Navaid (VOR, NDB)
Fix

Horizontal Profiles

Position Reports

Time Latitude Longitude Heading Altitude Ground
Speed
09-Jul-20 07:03 39.501689 -119.764936 79 4418ft 0kts
09-Jul-20 07:04 39.501689 -119.764936 79 4418ft 0kts
09-Jul-20 07:05 39.501689 -119.764936 79 4418ft 0kts
09-Jul-20 07:06 39.501689 -119.764936 79 4418ft 0kts
09-Jul-20 07:07 39.501689 -119.764936 79 4418ft 0kts
09-Jul-20 07:08 39.501689 -119.764936 79 4418ft 0kts
09-Jul-20 07:09 39.501689 -119.764936 79 4418ft 0kts
09-Jul-20 07:10 39.501689 -119.764936 79 4418ft 0kts
09-Jul-20 07:11 39.501689 -119.764936 79 4418ft 0kts
09-Jul-20 07:12 39.501689 -119.764936 79 4418ft 0kts
09-Jul-20 07:13 39.501689 -119.764936 79 4418ft 0kts
09-Jul-20 07:14 39.501689 -119.764936 79 4418ft 0kts
09-Jul-20 07:15 39.501689 -119.764936 79 4418ft 0kts
09-Jul-20 07:16 39.501689 -119.764936 79 4418ft 0kts
09-Jul-20 07:17 39.501689 -119.764936 79 4418ft 0kts
09-Jul-20 07:18 39.501689 -119.764936 79 4418ft 0kts
09-Jul-20 07:19 39.501689 -119.764936 79 4418ft 0kts
09-Jul-20 07:20 39.501689 -119.764936 79 4418ft 0kts
09-Jul-20 07:21 39.501689 -119.764936 79 4418ft 0kts
09-Jul-20 07:22 39.501689 -119.764936 79 4418ft 0kts
09-Jul-20 07:23 39.501689 -119.764936 79 4418ft 0kts
09-Jul-20 07:24 39.501689 -119.764936 79 4418ft 0kts
09-Jul-20 07:25 39.501689 -119.764936 79 4418ft 0kts
09-Jul-20 07:26 39.501689 -119.764936 79 4418ft 0kts
09-Jul-20 07:27 39.501689 -119.764936 79 4418ft 0kts
09-Jul-20 07:28 39.501689 -119.764936 79 4418ft 0kts
09-Jul-20 07:29 39.501689 -119.764936 79 4418ft 0kts
09-Jul-20 07:30 39.501689 -119.764936 79 4418ft 0kts
09-Jul-20 07:31 39.501689 -119.764936 79 4418ft 0kts
09-Jul-20 07:32 39.501689 -119.764935 79 4418ft 0kts
09-Jul-20 07:33 39.501689 -119.764935 79 4418ft 0kts
09-Jul-20 07:34 39.501689 -119.764934 80 4418ft 0kts
09-Jul-20 07:35 39.501689 -119.764934 80 4418ft 0kts
09-Jul-20 07:36 39.501689 -119.764933 80 4418ft 0kts
09-Jul-20 07:37 39.504592 -119.765801 0 4418ft 23kts
09-Jul-20 07:38 39.512010 -119.765260 4 4418ft 15kts
09-Jul-20 07:39 39.514176 -119.765185 200 4418ft 0kts
09-Jul-20 07:40 39.514163 -119.765191 199 4418ft 2kts
09-Jul-20 07:41 39.513721 -119.765737 260 4418ft 0kts
09-Jul-20 07:42 39.513413 -119.766704 181 4418ft 0kts
09-Jul-20 07:43 39.497165 -119.766678 178 4510ft 96kts
09-Jul-20 07:44 39.467752 -119.767087 178 5007ft 110kts
09-Jul-20 07:45 39.457578 -119.743570 54 5718ft 99kts
09-Jul-20 07:46 39.472380 -119.714826 53 6477ft 95kts
09-Jul-20 07:47 39.487948 -119.684963 54 6998ft 107kts
09-Jul-20 07:48 39.506525 -119.650894 54 7444ft 122kts
09-Jul-20 07:49 39.527151 -119.612048 54 7882ft 138kts
09-Jul-20 07:50 39.549522 -119.569561 54 8293ft 146kts
09-Jul-20 07:51 39.574869 -119.527833 49 8698ft 148kts
09-Jul-20 07:52 39.600814 -119.486089 49 9092ft 148kts
09-Jul-20 07:53 39.626874 -119.444205 49 9495ft 151kts
09-Jul-20 07:54 39.653627 -119.401443 49 9888ft 153kts
09-Jul-20 07:55 39.680758 -119.358274 49 10288ft 156kts
09-Jul-20 07:56 39.708652 -119.314201 49 10689ft 159kts
09-Jul-20 07:57 39.738169 -119.270322 46 11090ft 163kts
09-Jul-20 07:58 39.769360 -119.226128 46 11498ft 170kts
09-Jul-20 07:59 39.803406 -119.178223 46 11534ft 188kts
09-Jul-20 08:00 39.839471 -119.126741 50 11528ft 195kts
09-Jul-20 08:01 39.872716 -119.070746 53 11522ft 196kts
09-Jul-20 08:02 39.905253 -119.013467 53 11516ft 196kts
09-Jul-20 08:03 39.937818 -118.956274 53 11514ft 196kts
09-Jul-20 08:04 39.969752 -118.898022 57 11511ft 199kts
09-Jul-20 08:05 39.999786 -118.837863 57 11506ft 197kts
09-Jul-20 08:06 40.029972 -118.778065 57 11503ft 197kts
09-Jul-20 08:07 40.060486 -118.717897 57 11502ft 200kts
09-Jul-20 08:08 40.091058 -118.657690 58 11499ft 198kts
09-Jul-20 08:09 40.118880 -118.595543 61 11499ft 197kts
09-Jul-20 08:11 40.146292 -118.533400 61 11498ft 197kts
09-Jul-20 08:12 40.173719 -118.471303 61 11500ft 198kts
09-Jul-20 08:13 40.201193 -118.409156 61 11500ft 197kts
09-Jul-20 08:14 40.229267 -118.347717 59 11502ft 197kts
09-Jul-20 08:15 40.258391 -118.286791 59 11504ft 197kts
09-Jul-20 08:16 40.287686 -118.225478 59 11507ft 201kts
09-Jul-20 08:17 40.317201 -118.163655 59 11508ft 198kts
09-Jul-20 08:18 40.346410 -118.102468 59 11511ft 199kts
09-Jul-20 08:19 40.375890 -118.040666 59 11513ft 201kts
09-Jul-20 08:20 40.405426 -117.978699 59 11489ft 199kts
09-Jul-20 08:21 40.435347 -117.917909 58 11489ft 197kts
09-Jul-20 08:22 40.465323 -117.857345 58 11490ft 197kts
09-Jul-20 08:23 40.494141 -117.796364 74 11498ft 196kts
09-Jul-20 08:24 40.505662 -117.726955 82 11493ft 194kts
09-Jul-20 08:25 40.514282 -117.656992 85 11494ft 193kts
09-Jul-20 08:26 40.521212 -117.587280 85 11494ft 192kts
09-Jul-20 08:27 40.528082 -117.517468 86 11495ft 193kts
09-Jul-20 08:27 40.532538 -117.459047 87 11498ft 194kts
09-Jul-20 08:29 40.538583 -117.376241 87 11498ft 194kts
09-Jul-20 08:30 40.542266 -117.306065 90 11466ft 188kts
09-Jul-20 08:30 40.544020 -117.248805 90 11055ft 188kts
09-Jul-20 08:31 40.545770 -117.180632 90 10555ft 186kts
09-Jul-20 08:32 40.547129 -117.115051 90 9960ft 168kts
09-Jul-20 08:33 40.547893 -117.055995 90 9258ft 158kts
09-Jul-20 08:35 40.547895 -116.991566 90 8421ft 142kts
09-Jul-20 08:35 40.549161 -116.949616 65 7817ft 133kts
09-Jul-20 08:36 40.560254 -116.908335 79 7472ft 101kts
09-Jul-20 08:37 40.574245 -116.875441 51 6981ft 114kts
09-Jul-20 08:38 40.588646 -116.835981 70 6328ft 120kts
09-Jul-20 08:39 40.605203 -116.805979 336 5649ft 110kts
09-Jul-20 08:40 40.623175 -116.831834 264 5341ft 81kts
09-Jul-20 08:41 40.610843 -116.859275 224 4759ft 90kts
09-Jul-20 08:42 40.600960 -116.874400 268 4535ft 11kts
09-Jul-20 08:43 40.604531 -116.874138 4 4535ft 16kts
09-Jul-20 08:44 40.606478 -116.873768 352 4535ft 0kts
09-Jul-20 08:45 40.606478 -116.873768 352 4535ft 0kts
09-Jul-20 08:46 40.606478 -116.873768 352 4535ft 0kts
09-Jul-20 08:47 39.501689 -119.764936 79 4418ft 0kts

Navigation Log

Ident Type
Flight plan parsing failed, navigation log unavailable